createdAt,value
2022-11-19T00:01:34.580Z,1.42
2022-11-19T00:04:02.376Z,1.30
2022-11-19T00:06:30.148Z,1.40
2022-11-19T00:08:57.909Z,1.40
2022-11-19T00:11:45.818Z,1.30
2022-11-19T00:14:14.707Z,1.48
2022-11-19T00:16:44.040Z,1.40
2022-11-19T00:19:12.454Z,1.45
2022-11-19T00:21:40.439Z,1.48
2022-11-19T00:24:10.704Z,1.40
2022-11-19T00:26:38.492Z,1.20
2022-11-19T00:29:06.199Z,1.50
2022-11-19T00:31:34.000Z,1.30
2022-11-19T00:34:01.794Z,1.55
2022-11-19T00:36:29.626Z,1.65
2022-11-19T00:38:57.383Z,1.50
2022-11-19T00:41:25.140Z,1.48
2022-11-19T00:43:53.039Z,1.30
2022-11-19T00:46:24.879Z,1.30
2022-11-19T00:48:53.781Z,1.38
2022-11-19T00:51:22.377Z,1.35
2022-11-19T00:53:50.197Z,1.40
2022-11-19T00:56:19.228Z,1.60
2022-11-19T00:58:47.340Z,1.42
2022-11-19T01:01:15.813Z,1.55
2022-11-19T01:03:46.155Z,1.35
2022-11-19T01:06:18.821Z,1.53
2022-11-19T01:08:50.799Z,1.75
2022-11-19T01:11:21.360Z,1.48
2022-11-19T01:13:49.353Z,1.55
2022-11-19T01:16:28.686Z,1.48
2022-11-19T01:18:56.661Z,1.33
2022-11-19T01:21:25.870Z,1.50
2022-11-19T01:23:54.781Z,1.52
2022-11-19T01:26:22.557Z,1.60
2022-11-19T01:28:50.390Z,1.63
2022-11-19T01:31:21.576Z,1.63
2022-11-19T01:36:18.231Z,1.50
2022-11-19T01:38:51.112Z,1.60
2022-11-19T01:41:20.079Z,1.73
2022-11-19T01:43:49.492Z,1.60
2022-11-19T01:46:18.757Z,1.58
2022-11-19T01:49:09.800Z,1.67
2022-11-19T01:51:44.645Z,1.65
2022-11-19T01:54:21.212Z,1.50
2022-11-19T01:56:49.000Z,1.50
2022-11-19T01:59:18.227Z,1.42
2022-11-19T02:01:46.823Z,1.40
2022-11-19T02:04:16.083Z,1.40
2022-11-19T02:06:44.466Z,1.77
2022-11-19T02:09:12.226Z,1.60
2022-11-19T02:11:43.007Z,1.52
2022-11-19T02:14:37.381Z,1.58
2022-11-19T02:17:17.109Z,1.63
2022-11-19T02:20:20.125Z,1.45
2022-11-19T02:23:06.626Z,1.42
2022-11-19T02:25:40.413Z,1.38
2022-11-19T02:28:08.156Z,1.60
2022-11-19T02:30:47.101Z,1.65
2022-11-19T02:33:27.050Z,1.40
2022-11-19T02:36:02.098Z,1.48
2022-11-19T02:38:32.852Z,1.60
2022-11-19T02:41:25.219Z,1.70
2022-11-19T02:44:16.473Z,1.40
2022-11-19T02:46:44.396Z,1.58
2022-11-19T02:49:13.315Z,1.52
2022-11-19T02:51:41.073Z,1.50
2022-11-19T02:54:09.200Z,1.50
2022-11-19T02:56:48.040Z,1.60
2022-11-19T02:59:36.249Z,1.40
2022-11-19T03:02:25.055Z,1.50
2022-11-19T03:04:53.030Z,1.30
2022-11-19T03:07:21.603Z,1.40
2022-11-19T03:10:00.318Z,1.50
2022-11-19T03:12:37.222Z,1.48
2022-11-19T03:15:38.597Z,1.80
2022-11-19T03:20:40.405Z,1.40
2022-11-19T03:23:12.822Z,1.50
2022-11-19T03:25:50.292Z,1.50
2022-11-19T03:28:21.541Z,1.70
2022-11-19T03:30:50.581Z,1.50
2022-11-19T03:33:21.055Z,1.75
2022-11-19T03:35:51.416Z,1.80
2022-11-19T03:38:27.218Z,1.60
2022-11-19T03:40:55.963Z,1.75
2022-11-19T03:43:25.992Z,1.50
2022-11-19T03:45:54.836Z,1.67
2022-11-19T03:48:23.189Z,1.45
2022-11-19T03:50:50.933Z,1.50
2022-11-19T03:53:19.123Z,1.55
2022-11-19T03:55:59.111Z,1.60
2022-11-19T03:58:27.437Z,1.50
2022-11-19T04:00:55.189Z,1.80
2022-11-19T04:03:23.084Z,1.40
2022-11-19T04:05:50.830Z,1.70
2022-11-19T04:08:18.561Z,1.55
2022-11-19T04:10:46.308Z,1.50
2022-11-19T04:13:14.006Z,1.63
2022-11-19T04:15:41.795Z,1.40
2022-11-19T04:18:09.756Z,1.58
2022-11-19T04:20:37.580Z,1.50
2022-11-19T04:23:05.454Z,1.70
2022-11-19T04:25:34.310Z,1.50
2022-11-19T04:28:02.064Z,1.42
2022-11-19T04:30:30.290Z,1.40
2022-11-19T04:32:58.148Z,1.60
2022-11-19T04:35:25.939Z,1.50
2022-11-19T04:37:53.693Z,1.50
2022-11-19T04:40:21.425Z,1.65
2022-11-19T04:42:49.186Z,1.63
2022-11-19T04:45:17.476Z,1.60
2022-11-19T04:47:45.240Z,1.70
2022-11-19T04:50:13.195Z,1.33
2022-11-19T04:52:41.640Z,1.60
2022-11-19T04:55:10.962Z,1.60
2022-11-19T04:57:38.675Z,1.63
2022-11-19T05:00:07.092Z,1.58
2022-11-19T05:02:35.111Z,1.60
2022-11-19T05:05:03.001Z,1.70
2022-11-19T05:07:30.771Z,1.60
2022-11-19T05:09:58.528Z,1.50
2022-11-19T05:12:26.310Z,1.58
2022-11-19T05:14:54.137Z,1.63
2022-11-19T05:17:21.882Z,1.73
2022-11-19T05:19:49.596Z,1.45
2022-11-19T05:22:17.304Z,1.58
2022-11-19T05:24:45.286Z,1.50
2022-11-19T05:27:13.114Z,1.50
2022-11-19T05:29:41.239Z,1.52
2022-11-19T05:32:09.024Z,1.50
2022-11-19T05:34:36.868Z,1.40
2022-11-19T05:37:04.616Z,1.55
2022-11-19T05:39:32.389Z,1.70
2022-11-19T05:42:00.154Z,1.40
2022-11-19T05:44:27.960Z,1.80
2022-11-19T05:46:56.933Z,1.60
2022-11-19T05:49:24.680Z,1.38
2022-11-19T05:51:52.552Z,1.30
2022-11-19T05:54:21.452Z,1.65
2022-11-19T05:56:49.521Z,1.83
2022-11-19T05:59:17.928Z,1.60
2022-11-19T06:01:45.928Z,2.00
2022-11-19T06:04:13.739Z,1.80
2022-11-19T06:06:41.521Z,1.40
2022-11-19T06:09:09.440Z,1.40
2022-11-19T06:11:50.417Z,1.50
2022-11-19T06:14:20.586Z,1.58
2022-11-19T06:16:48.541Z,1.60
2022-11-19T06:19:16.461Z,1.40
2022-11-19T06:21:44.623Z,1.65
2022-11-19T06:24:13.098Z,1.40
2022-11-19T06:26:40.825Z,1.65
2022-11-19T06:29:09.001Z,1.60
2022-11-19T06:31:36.723Z,1.70
2022-11-19T06:34:04.690Z,1.73
2022-11-19T06:36:37.489Z,1.70
2022-11-19T06:39:08.467Z,1.75
2022-11-19T06:41:36.356Z,1.60
2022-11-19T06:44:04.536Z,1.70
2022-11-19T06:46:32.595Z,1.70
2022-11-19T06:49:00.305Z,1.70
2022-11-19T06:51:28.130Z,1.50
2022-11-19T06:53:55.939Z,1.60
2022-11-19T06:56:23.661Z,1.60
2022-11-19T06:58:51.541Z,1.80
2022-11-19T07:01:19.414Z,1.60
2022-11-19T07:03:47.215Z,1.80
2022-11-19T07:06:14.984Z,1.75
2022-11-19T07:08:42.803Z,1.80
2022-11-19T07:11:28.879Z,1.70
2022-11-19T07:14:00.240Z,1.50
2022-11-19T07:16:29.633Z,1.83
2022-11-19T07:18:58.011Z,1.60
2022-11-19T07:21:25.916Z,1.85
2022-11-19T07:23:53.805Z,1.50
2022-11-19T07:26:21.623Z,1.67
2022-11-19T07:28:49.356Z,1.73
2022-11-19T07:31:17.285Z,1.50
2022-11-19T07:33:45.302Z,1.60
2022-11-19T07:36:18.109Z,1.48
2022-11-19T07:38:47.170Z,1.48
2022-11-19T07:41:33.710Z,1.67
2022-11-19T07:44:01.587Z,1.73
2022-11-19T07:46:29.312Z,1.70
2022-11-19T07:48:57.879Z,1.60
2022-11-19T07:51:26.099Z,1.70
2022-11-19T07:53:54.048Z,1.67
2022-11-19T07:56:21.999Z,1.70
2022-11-19T07:58:49.825Z,1.50
2022-11-19T08:01:19.155Z,1.40
2022-11-19T08:03:51.897Z,1.70
2022-11-19T08:06:23.143Z,1.98
2022-11-19T08:08:50.932Z,1.55
2022-11-19T08:11:19.178Z,1.60
2022-11-19T08:13:47.157Z,1.70
2022-11-19T08:16:35.898Z,1.50
2022-11-19T08:19:04.580Z,1.40
2022-11-19T08:21:32.257Z,1.67
2022-11-19T08:24:00.031Z,1.70
2022-11-19T08:26:27.787Z,1.60
2022-11-19T08:28:55.518Z,1.80
2022-11-19T08:31:23.302Z,1.50
2022-11-19T08:33:51.101Z,1.70
2022-11-19T08:36:18.960Z,1.48
2022-11-19T08:38:46.773Z,1.50
2022-11-19T08:41:33.257Z,1.70
2022-11-19T08:44:01.938Z,1.70
2022-11-19T08:46:29.749Z,1.50
2022-11-19T08:48:57.545Z,1.50
2022-11-19T08:51:25.413Z,1.40
2022-11-19T08:53:53.805Z,1.50
2022-11-19T08:56:21.995Z,1.52
2022-11-19T08:58:50.288Z,1.63
2022-11-19T09:01:18.641Z,1.50
2022-11-19T09:03:46.510Z,1.42
2022-11-19T09:06:14.757Z,1.95
2022-11-19T09:08:42.649Z,1.60
2022-11-19T09:11:11.463Z,1.70
2022-11-19T09:13:39.561Z,1.80
2022-11-19T09:16:07.660Z,1.50
2022-11-19T09:18:39.162Z,1.70
2022-11-19T09:21:07.885Z,1.77
2022-11-19T09:23:35.936Z,1.65
2022-11-19T09:26:10.634Z,1.50
2022-11-19T09:28:38.420Z,1.60
2022-11-19T09:31:08.262Z,1.85
2022-11-19T09:33:37.386Z,1.90
2022-11-19T09:36:05.376Z,1.60
2022-11-19T09:38:35.270Z,1.70
2022-11-19T09:41:14.062Z,1.60
2022-11-19T09:43:41.958Z,1.63
2022-11-19T09:46:21.963Z,1.83
2022-11-19T09:48:51.289Z,1.80
2022-11-19T09:51:22.711Z,1.80
2022-11-19T09:53:56.592Z,1.70
2022-11-19T09:56:27.836Z,1.85
2022-11-19T09:58:56.633Z,1.90
2022-11-19T10:01:25.996Z,1.73
2022-11-19T10:03:55.163Z,1.85
2022-11-19T10:06:24.051Z,1.50
2022-11-19T10:09:03.097Z,1.98
2022-11-19T10:11:30.873Z,1.83
2022-11-19T10:14:04.895Z,1.90
2022-11-19T10:16:50.194Z,2.10
2022-11-19T10:19:36.613Z,2.78
2022-11-19T10:22:10.578Z,2.38
2022-11-19T10:24:38.373Z,2.05
2022-11-19T10:27:12.531Z,2.30
2022-11-19T10:29:40.585Z,2.42
2022-11-19T10:32:23.619Z,2.75
2022-11-19T10:34:53.009Z,2.60
2022-11-19T10:37:23.444Z,2.40
2022-11-19T10:39:54.391Z,2.40
2022-11-19T10:44:55.644Z,2.85
2022-11-19T10:47:23.385Z,2.75
2022-11-19T10:49:55.185Z,2.80
2022-11-19T10:52:26.066Z,2.65
2022-11-19T10:54:57.484Z,2.50
2022-11-19T10:57:25.725Z,2.77
2022-11-19T10:59:54.322Z,2.50
2022-11-19T11:02:32.076Z,2.72
2022-11-19T11:05:06.217Z,2.60
2022-11-19T11:07:50.151Z,2.75
2022-11-19T11:10:29.208Z,2.60
2022-11-19T11:13:17.876Z,2.60
2022-11-19T11:15:46.948Z,2.33
2022-11-19T11:18:15.364Z,2.63
2022-11-19T11:20:47.431Z,2.50
2022-11-19T11:23:19.589Z,2.58
2022-11-19T11:26:06.088Z,2.47
2022-11-19T11:28:34.120Z,2.40
2022-11-19T11:31:06.344Z,2.55
2022-11-19T11:33:35.541Z,2.38
2022-11-19T11:36:09.506Z,2.55
2022-11-19T11:38:42.777Z,2.10
2022-11-19T11:42:02.045Z,2.42
2022-11-19T11:44:03.128Z,2.15
2022-11-19T11:46:43.148Z,2.17
2022-11-19T11:49:21.003Z,2.33
2022-11-19T11:51:56.086Z,2.15
2022-11-19T11:54:24.298Z,2.20
2022-11-19T11:56:52.382Z,2.20
2022-11-19T11:59:23.673Z,2.15
2022-11-19T12:02:02.211Z,2.40
2022-11-19T12:04:30.866Z,2.05
2022-11-19T12:06:59.086Z,2.13
2022-11-19T12:09:35.305Z,1.80
2022-11-19T12:12:09.605Z,1.90
2022-11-19T12:14:37.474Z,2.10
2022-11-19T12:17:08.332Z,1.80
2022-11-19T12:19:46.396Z,2.13
2022-11-19T12:22:40.660Z,1.67
2022-11-19T12:25:08.518Z,1.92
2022-11-19T12:27:56.505Z,1.70
2022-11-19T12:30:25.592Z,1.80
2022-11-19T12:32:59.229Z,1.73
2022-11-19T12:35:31.839Z,1.70
2022-11-19T12:38:02.364Z,1.70
2022-11-19T12:40:41.506Z,1.65
2022-11-19T12:43:28.492Z,1.88
2022-11-19T12:45:56.255Z,1.92
2022-11-19T12:48:56.808Z,1.90
2022-11-19T12:51:32.940Z,1.70
2022-11-19T12:54:00.847Z,1.70
2022-11-19T12:56:28.600Z,1.63
2022-11-19T12:59:03.348Z,1.77
2022-11-19T13:01:34.149Z,1.60
2022-11-19T13:04:34.425Z,1.75
2022-11-19T13:07:02.682Z,1.90
2022-11-19T13:09:35.897Z,1.40
2022-11-19T13:12:08.525Z,1.70
2022-11-19T13:14:45.153Z,1.60
2022-11-19T13:17:19.219Z,1.75
2022-11-19T13:19:49.643Z,1.48
2022-11-19T13:22:19.165Z,1.48
2022-11-19T13:24:51.125Z,1.60
2022-11-19T13:27:23.197Z,2.10
2022-11-19T13:29:54.337Z,1.60
2022-11-19T13:32:48.118Z,1.60
2022-11-19T13:35:27.668Z,1.65
2022-11-19T13:38:01.220Z,1.85
2022-11-19T13:40:32.045Z,1.83
2022-11-19T13:43:34.151Z,1.45
2022-11-19T13:46:12.316Z,1.52
2022-11-19T13:48:43.226Z,1.50
2022-11-19T13:51:19.236Z,1.50
2022-11-19T13:53:47.328Z,1.75
2022-11-19T13:56:17.526Z,1.60
2022-11-19T13:58:47.417Z,1.57
2022-11-19T14:01:15.298Z,1.35
2022-11-19T14:04:19.317Z,1.50
2022-11-19T14:06:49.918Z,1.38
2022-11-19T14:09:29.722Z,1.58
2022-11-19T14:12:32.960Z,1.42
2022-11-19T14:15:38.074Z,1.50
2022-11-19T14:18:24.505Z,1.45
2022-11-19T14:21:10.939Z,1.38
2022-11-19T14:24:01.833Z,1.67
2022-11-19T14:26:41.857Z,1.38
2022-11-19T14:29:27.907Z,1.70
2022-11-19T14:32:06.477Z,1.33
2022-11-19T14:34:37.159Z,1.48
2022-11-19T14:37:11.946Z,1.40
2022-11-19T14:39:42.060Z,1.38
2022-11-19T14:42:20.343Z,1.40
2022-11-19T14:45:08.195Z,1.20
2022-11-19T14:47:38.559Z,1.10
2022-11-19T14:50:25.024Z,1.42
2022-11-19T14:52:54.544Z,1.23
2022-11-19T14:55:33.979Z,1.20
2022-11-19T14:58:03.434Z,1.33
2022-11-19T15:00:33.263Z,1.27
2022-11-19T15:03:01.861Z,1.30
2022-11-19T15:05:42.884Z,1.60
2022-11-19T15:08:19.538Z,1.30
2022-11-19T15:10:50.093Z,1.30
2022-11-19T15:13:28.639Z,1.23
2022-11-19T15:16:04.180Z,1.17
2022-11-19T15:18:41.078Z,1.13
2022-11-19T15:21:19.260Z,1.48
2022-11-19T15:23:47.194Z,1.40
2022-11-19T15:26:15.002Z,1.52
2022-11-19T15:28:50.250Z,1.38
2022-11-19T15:31:18.042Z,1.27
2022-11-19T15:34:04.268Z,1.50
2022-11-19T15:36:33.809Z,1.30
2022-11-19T15:39:15.129Z,1.23
2022-11-19T15:42:00.802Z,1.27
2022-11-19T15:44:38.275Z,1.50
2022-11-19T15:47:18.633Z,1.60
2022-11-19T15:49:47.386Z,1.80
2022-11-19T15:52:19.302Z,1.83
2022-11-19T15:54:47.178Z,1.85
2022-11-19T15:57:17.991Z,2.08
2022-11-19T15:59:48.007Z,2.45
2022-11-19T16:02:20.234Z,2.90
2022-11-19T16:04:50.481Z,3.40
2022-11-19T16:07:22.673Z,3.07
2022-11-19T16:09:50.907Z,3.33
2022-11-19T16:12:40.928Z,4.00
2022-11-19T16:15:36.723Z,3.60
2022-11-19T16:18:05.712Z,3.83
2022-11-19T16:20:34.212Z,4.20
2022-11-19T16:23:04.008Z,4.25
2022-11-19T16:25:34.406Z,4.45
2022-11-19T16:28:25.265Z,4.18
2022-11-19T16:31:00.610Z,4.30
2022-11-19T16:33:30.150Z,4.40
2022-11-19T16:36:14.581Z,3.78
2022-11-19T16:38:43.627Z,4.22
2022-11-19T16:41:31.497Z,4.28
2022-11-19T16:43:59.864Z,4.03
2022-11-19T16:46:29.580Z,4.18
2022-11-19T16:48:58.484Z,4.25
2022-11-19T16:51:40.394Z,4.03
2022-11-19T16:54:09.905Z,3.95
2022-11-19T16:56:43.042Z,3.80
2022-11-19T16:59:18.083Z,3.90
2022-11-19T17:01:51.727Z,3.75
2022-11-19T17:04:20.143Z,3.83
2022-11-19T17:06:48.311Z,3.33
2022-11-19T17:09:34.887Z,3.53
2022-11-19T17:12:18.125Z,4.15
2022-11-19T17:14:53.313Z,3.72
2022-11-19T17:17:30.009Z,3.63
2022-11-19T17:19:58.480Z,3.53
2022-11-19T17:22:34.753Z,4.20
2022-11-19T17:25:04.188Z,4.72
2022-11-19T17:27:31.949Z,4.53
2022-11-19T17:30:03.854Z,4.50
2022-11-19T17:32:35.675Z,5.20
2022-11-19T17:35:03.702Z,5.78
2022-11-19T17:37:31.428Z,5.35
2022-11-19T17:39:59.175Z,4.88
2022-11-19T17:42:45.576Z,5.45
2022-11-19T17:45:13.433Z,5.25
2022-11-19T17:47:41.163Z,5.35
2022-11-19T17:50:09.082Z,4.82
2022-11-19T17:52:36.994Z,5.35
2022-11-19T17:55:25.945Z,5.40
2022-11-19T17:57:53.659Z,5.68
2022-11-19T18:00:21.441Z,5.40
2022-11-19T18:02:49.208Z,5.38
2022-11-19T18:05:19.014Z,5.57
2022-11-19T18:07:46.864Z,6.05
2022-11-19T18:10:14.673Z,5.50
2022-11-19T18:12:42.470Z,5.60
2022-11-19T18:15:16.299Z,5.80
2022-11-19T18:17:44.064Z,5.60
2022-11-19T18:20:12.285Z,6.03
2022-11-19T18:22:46.067Z,6.15
2022-11-19T18:25:18.959Z,5.57
2022-11-19T18:27:48.081Z,6.70
2022-11-19T18:30:16.659Z,6.35
2022-11-19T18:32:45.501Z,6.40
2022-11-19T18:35:16.953Z,6.70
2022-11-19T18:37:46.021Z,6.10
2022-11-19T18:40:15.875Z,6.82
2022-11-19T18:43:03.710Z,6.72
2022-11-19T18:45:31.622Z,6.35
2022-11-19T18:47:59.496Z,6.65
2022-11-19T18:50:30.068Z,6.90
2022-11-19T18:52:58.336Z,6.47
2022-11-19T18:55:27.188Z,7.00
2022-11-19T18:57:54.943Z,6.70
2022-11-19T19:00:22.912Z,6.50
2022-11-19T19:02:50.827Z,6.90
2022-11-19T19:05:19.975Z,6.97
2022-11-19T19:07:48.145Z,6.82
2022-11-19T19:10:17.274Z,6.93
2022-11-19T19:12:45.042Z,6.63
2022-11-19T19:15:13.018Z,6.30
2022-11-19T19:17:40.855Z,5.82
2022-11-19T19:20:09.331Z,6.20
2022-11-19T19:22:37.745Z,6.30
2022-11-19T19:25:05.841Z,5.43
2022-11-19T19:27:33.606Z,5.70
2022-11-19T19:30:07.403Z,5.70
2022-11-19T19:32:35.669Z,5.47
2022-11-19T19:35:04.779Z,5.45
2022-11-19T19:37:32.644Z,5.65
2022-11-19T19:40:00.462Z,6.00
2022-11-19T19:42:29.484Z,5.93
2022-11-19T19:44:58.695Z,6.43
2022-11-19T19:47:26.471Z,6.22
2022-11-19T19:49:54.757Z,5.97
2022-11-19T19:52:22.516Z,6.05
2022-11-19T19:54:51.387Z,5.88
2022-11-19T19:57:19.147Z,5.65
2022-11-19T19:59:46.874Z,5.63
2022-11-19T20:02:14.702Z,5.30
2022-11-19T20:04:42.619Z,5.55
2022-11-19T20:07:10.415Z,5.28
2022-11-19T20:09:39.527Z,5.18
2022-11-19T20:12:07.456Z,5.82
2022-11-19T20:14:35.444Z,5.35
2022-11-19T20:17:06.237Z,5.05
2022-11-19T20:19:33.998Z,5.25
2022-11-19T20:22:05.200Z,5.25
2022-11-19T20:24:36.763Z,4.72
2022-11-19T20:27:05.077Z,4.50
2022-11-19T20:29:34.900Z,4.60
2022-11-19T20:32:02.781Z,5.10
2022-11-19T20:34:31.000Z,4.50
2022-11-19T20:36:58.957Z,4.50
2022-11-19T20:39:26.842Z,4.18
2022-11-19T20:42:13.141Z,4.43
2022-11-19T20:44:41.054Z,4.43
2022-11-19T20:47:09.004Z,4.20
2022-11-19T20:49:40.725Z,4.07
2022-11-19T20:52:08.544Z,3.85
2022-11-19T20:54:36.314Z,3.92
2022-11-19T20:57:04.158Z,3.90
2022-11-19T20:59:32.138Z,4.03
2022-11-19T21:01:59.930Z,3.47
2022-11-19T21:04:36.501Z,3.83
2022-11-19T21:07:05.075Z,3.70
2022-11-19T21:09:33.711Z,3.88
2022-11-19T21:12:01.478Z,3.85
2022-11-19T21:14:29.561Z,3.72
2022-11-19T21:16:57.354Z,3.58
2022-11-19T21:19:25.160Z,3.88
2022-11-19T21:21:52.978Z,3.85
2022-11-19T21:24:20.867Z,3.50
2022-11-19T21:26:48.616Z,3.63
2022-11-19T21:29:16.380Z,3.40
2022-11-19T21:31:49.243Z,3.45
2022-11-19T21:34:18.165Z,3.38
2022-11-19T21:36:46.268Z,3.35
2022-11-19T21:39:15.087Z,3.45
2022-11-19T21:41:43.252Z,3.80
2022-11-19T21:44:13.286Z,3.03
2022-11-19T21:46:43.121Z,3.20
2022-11-19T21:49:10.889Z,3.28
2022-11-19T21:51:38.701Z,3.25
2022-11-19T21:54:06.588Z,3.53
2022-11-19T21:56:38.588Z,3.13
2022-11-19T21:59:07.908Z,3.00
2022-11-19T22:01:35.881Z,3.10
2022-11-19T22:04:03.873Z,3.30
2022-11-19T22:06:32.180Z,3.00
2022-11-19T22:08:59.935Z,3.00
2022-11-19T22:11:31.497Z,3.17
2022-11-19T22:14:02.135Z,3.13
2022-11-19T22:16:30.751Z,3.03
2022-11-19T22:18:58.612Z,3.10
2022-11-19T22:21:27.217Z,3.25
2022-11-19T22:23:56.247Z,3.00
2022-11-19T22:26:24.089Z,3.10
2022-11-19T22:28:52.008Z,3.10
2022-11-19T22:31:19.809Z,2.78
2022-11-19T22:33:51.829Z,2.88
2022-11-19T22:36:20.755Z,3.00
2022-11-19T22:38:48.608Z,2.83
2022-11-19T22:41:17.555Z,2.65
2022-11-19T22:43:45.620Z,3.10
2022-11-19T22:46:13.936Z,2.90
2022-11-19T22:48:41.762Z,2.88
2022-11-19T22:51:22.840Z,3.17
2022-11-19T22:53:51.139Z,3.10
2022-11-19T22:56:20.443Z,2.90
2022-11-19T22:58:48.594Z,2.85
2022-11-19T23:01:17.729Z,2.70
2022-11-19T23:03:46.558Z,3.15
2022-11-19T23:06:14.561Z,2.80
2022-11-19T23:08:42.642Z,2.72
2022-11-19T23:11:10.679Z,3.00
2022-11-19T23:13:39.665Z,2.92
2022-11-19T23:16:09.288Z,2.80
2022-11-19T23:19:03.216Z,2.97
2022-11-19T23:21:31.407Z,2.60
2022-11-19T23:24:01.206Z,2.80
2022-11-19T23:26:30.065Z,2.90
2022-11-19T23:28:57.920Z,2.92
2022-11-19T23:31:26.831Z,2.60
2022-11-19T23:33:58.972Z,2.92
2022-11-19T23:36:28.384Z,2.63
2022-11-19T23:38:56.148Z,2.55
2022-11-19T23:41:24.393Z,2.55
2022-11-19T23:43:53.626Z,2.90
2022-11-19T23:46:22.960Z,2.38
2022-11-19T23:48:50.953Z,2.70
2022-11-19T23:51:25.865Z,2.53
2022-11-19T23:53:53.673Z,2.83
2022-11-19T23:56:22.059Z,2.45
2022-11-19T23:58:49.890Z,2.50
